Milnathort, United Kingdom
Current Conditions -  °F | °C
As of 4:50 PM on Tuesday 21 Oct 2014 (Local Time) from EGPH Reporting Station
Few Clouds Few Clouds  
Wind Chill: 43°   Ceiling: Unl
Heat Index: 48°   Visibility: 6mi
Dew Point: 34°   Wind: 13mph
Humidity: 57%   Direction: 280°W
Pressure: 29.68"   Gusts: NA
Location:  56.23°N, 3.42°W
Report Text: EGPH 211550Z 28011KT 250V310 9999 FEW042 09/01 Q1005
Loading
Personal Weather Stations






























Interactive Weather Map
Tropical Storm Tracking
New forecast layout! Learn more

10-Day Weather Forecast

Advertisements
Track Severe Weather on mobile